Time;durP1;ratioP1;P1;durP2;ratioP2;P2;SDS_P1;SDS_P2;PMS_P1;PMS_P2;Temp;Humidity;BMP_temperature;BMP_pressure;BME280_temperature;BME280_humidity;BME280_pressure;Samples;Min_cycle;Max_cycle;Signal;HPM_P1;HPM_P2
2024/01/17 00:04:34;;;;;;;4.37;3.20;;;;;;;-3.54;78.99;97918.34;7221373;40;20264;31
2024/01/17 00:09:54;;;;;;;10.00;4.40;;;;;;;-3.60;79.66;97929.34;7236615;40;21758;31
2024/01/17 00:20:35;;;;;;;8.80;4.57;;;;;;;-3.67;79.72;97889.44;7333345;39;20260;31
2024/01/17 00:25:56;;;;;;;7.63;3.47;;;;;;;-3.76;80.61;97898.00;7278026;39;20290;31
2024/01/17 00:36:36;;;;;;;4.90;3.40;;;;;;;-3.87;81.54;97881.31;7241243;39;21826;31
2024/01/17 00:47:16;;;;;;;8.00;4.03;;;;;;;-3.79;83.36;97871.91;7261398;40;20272;31
2024/01/17 00:52:52;;;;;;;6.03;3.70;;;;;;;-3.76;83.21;97855.88;7276003;39;20248;31
2024/01/17 00:58:27;;;;;;;5.73;3.93;;;;;;;-3.66;82.36;97854.28;7218897;40;20242;31
2024/01/17 01:03:48;;;;;;;6.97;4.17;;;;;;;-3.31;82.16;97845.56;7195849;40;20413;31
2024/01/17 01:09:23;;;;;;;10.00;4.40;;;;;;;-3.15;80.79;97834.72;7205143;40;20246;31
2024/01/17 01:14:58;;;;;;;8.13;4.60;;;;;;;-3.03;80.65;97832.00;7259547;40;20261;31
2024/01/17 01:20:33;;;;;;;6.93;4.10;;;;;;;-2.95;79.86;97831.44;7258078;40;20268;31
2024/01/17 01:26:10;;;;;;;5.67;3.80;;;;;;;-2.89;80.09;97812.50;7236759;40;20344;31
2024/01/17 01:31:32;;;;;;;7.33;4.40;;;;;;;-2.82;80.23;97800.53;7205851;40;20253;31
2024/01/17 01:37:06;;;;;;;8.90;4.70;;;;;;;-2.81;79.91;97807.50;7221636;40;20246;31
2024/01/17 01:42:44;;;;;;;7.17;4.00;;;;;;;-2.85;79.97;97798.94;7245871;40;20354;31
2024/01/17 01:48:19;;;;;;;6.70;3.80;;;;;;;-2.77;80.05;97793.97;7228612;40;20241;31
2024/01/17 01:53:54;;;;;;;9.60;4.10;;;;;;;-2.79;79.66;97781.84;7211775;40;20346;31
2024/01/17 01:59:31;;;;;;;6.50;3.90;;;;;;;-2.77;79.76;97775.50;7147370;40;20272;31
2024/01/17 02:05:06;;;;;;;7.90;4.40;;;;;;;-2.76;80.03;97763.97;7195215;40;20237;31
2024/01/17 02:10:41;;;;;;;6.40;3.90;;;;;;;-2.85;80.37;97767.31;7224390;40;20315;31
2024/01/17 02:16:15;;;;;;;7.95;4.35;;;;;;;-2.90;80.39;97760.75;7152953;40;20350;31
2024/01/17 02:21:36;;;;;;;8.17;4.27;;;;;;;-2.79;80.57;97748.41;7177848;40;20396;31
2024/01/17 02:27:10;;;;;;;6.33;4.33;;;;;;;-2.83;80.23;97735.59;7227080;40;20262;31
2024/01/17 02:32:48;;;;;;;8.73;4.70;;;;;;;-2.70;80.62;97709.94;7233923;40;20348;31
2024/01/17 02:38:20;;;;;;;8.50;5.30;;;;;;;-2.76;81.34;97692.81;7247131;39;20242;31
2024/01/17 02:43:57;;;;;;;10.50;6.17;;;;;;;-2.90;82.56;97681.69;7286998;39;20394;31
2024/01/17 02:49:19;;;;;;;11.43;5.97;;;;;;;-2.92;83.30;97679.16;7248183;40;20257;31
2024/01/17 02:54:53;;;;;;;8.57;6.03;;;;;;;-2.77;82.42;97675.34;7228020;40;20241;31
2024/01/17 03:06:30;;;;;;;11.70;6.40;;;;;;;-2.55;81.29;97671.81;7230459;40;20266;31
2024/01/17 03:11:51;;;;;;;10.33;6.30;;;;;;;-2.39;81.80;97666.13;7290750;39;20362;31
2024/01/17 03:17:12;;;;;;;10.90;6.23;;;;;;;-2.29;81.34;97662.63;7281750;40;20343;31
2024/01/17 03:22:48;;;;;;;14.27;7.00;;;;;;;-2.29;79.97;97651.25;7219349;40;20332;31
2024/01/17 03:28:23;;;;;;;9.00;6.90;;;;;;;-2.31;80.31;97646.09;7225532;40;20270;31
2024/01/17 03:33:43;;;;;;;10.15;6.70;;;;;;;-2.22;80.94;97647.13;7210253;40;20372;31
2024/01/17 03:39:21;;;;;;;11.07;7.50;;;;;;;-2.19;80.31;97625.75;7198020;40;20465;31
2024/01/17 03:44:55;;;;;;;10.85;6.95;;;;;;;-2.14;80.56;97623.59;7225534;40;20238;31
2024/01/17 03:50:15;;;;;;;11.90;7.27;;;;;;;-2.12;80.40;97600.56;7201376;40;20475;31
2024/01/17 03:55:47;;;;;;;10.00;7.60;;;;;;;-2.20;81.14;97583.69;7018533;40;21159;31
2024/01/17 04:01:07;;;;;;;11.30;7.20;;;;;;;-2.27;82.07;97562.25;7205403;40;20362;31
2024/01/17 04:06:29;;;;;;;11.30;6.80;;;;;;;-2.31;83.08;97552.91;7205816;40;20329;31
2024/01/17 04:12:05;;;;;;;11.43;7.03;;;;;;;-2.44;82.71;97528.50;7240493;40;20394;31
2024/01/17 04:17:25;;;;;;;10.90;7.10;;;;;;;-2.53;84.09;97531.91;7245684;40;21351;31
2024/01/17 04:23:01;;;;;;;12.50;8.20;;;;;;;-2.74;85.10;97506.38;7229274;40;20359;31
2024/01/17 04:33:38;;;;;;;12.43;8.00;;;;;;;-2.72;85.36;97480.69;7236029;40;21517;31
2024/01/17 04:39:14;;;;;;;12.90;8.20;;;;;;;-2.66;85.40;97475.88;7275109;40;20245;31
2024/01/17 04:44:33;;;;;;;12.83;8.63;;;;;;;-2.55;84.65;97460.03;7268314;39;20483;31
2024/01/17 04:50:10;;;;;;;11.70;7.73;;;;;;;-2.61;84.88;97448.19;7256711;40;20249;31
2024/01/17 04:55:30;;;;;;;14.03;8.33;;;;;;;-2.69;85.69;97441.88;7226681;40;20748;31
2024/01/17 05:00:51;;;;;;;13.83;8.20;;;;;;;-2.68;86.35;97428.56;7231234;40;20265;31
2024/01/17 05:06:25;;;;;;;10.73;7.57;;;;;;;-2.72;87.21;97405.22;7251397;39;20257;31
2024/01/17 05:12:00;;;;;;;10.83;7.83;;;;;;;-2.76;87.08;97396.72;7266599;40;20237;31
2024/01/17 05:17:35;;;;;;;11.70;7.37;;;;;;;-2.73;87.60;97378.03;7257827;40;20245;31
2024/01/17 05:23:11;;;;;;;11.27;7.23;;;;;;;-2.79;88.33;97379.37;7239653;40;20257;31
2024/01/17 05:28:31;;;;;;;12.90;7.70;;;;;;;-2.72;88.19;97358.59;7253056;40;20241;31
2024/01/17 05:33:49;;;;;;;12.57;7.90;;;;;;;-2.58;87.48;97358.25;7270813;39;21716;31
2024/01/17 05:39:26;;;;;;;12.50;8.30;;;;;;;-2.56;87.63;97329.97;7231398;40;20257;31
2024/01/17 05:44:46;;;;;;;10.80;7.37;;;;;;;-2.45;87.95;97321.13;7195589;40;20251;31
2024/01/17 05:50:19;;;;;;;13.30;7.80;;;;;;;-2.41;87.58;97304.06;7177368;40;20280;31
2024/01/17 05:55:55;;;;;;;13.25;7.80;;;;;;;-2.34;87.79;97294.66;7170212;40;20242;31
2024/01/17 06:01:30;;;;;;;13.10;8.05;;;;;;;-2.25;88.70;97277.19;7227383;40;20242;31
2024/01/17 06:07:05;;;;;;;13.63;7.60;;;;;;;-2.14;87.72;97272.63;7189276;40;20247;31
2024/01/17 06:12:41;;;;;;;9.23;6.80;;;;;;;-2.03;88.20;97250.59;7184201;40;20351;31
2024/01/17 06:18:02;;;;;;;12.47;7.77;;;;;;;-1.92;88.32;97242.53;7206309;40;20251;31
2024/01/17 06:23:22;;;;;;;11.77;7.47;;;;;;;-1.87;87.76;97230.59;7203222;40;20339;31
2024/01/17 06:28:58;;;;;;;11.55;8.00;;;;;;;-1.84;87.31;97226.84;7256181;39;20257;31
2024/01/17 06:34:18;;;;;;;15.27;6.90;;;;;;;-1.79;88.60;97210.56;7257433;39;20246;31
2024/01/17 06:39:54;;;;;;;13.55;7.80;;;;;;;-1.77;88.15;97191.00;7273672;39;20335;31
2024/01/17 06:45:30;;;;;;;15.17;7.73;;;;;;;-1.76;89.74;97187.41;7219797;40;20380;31
2024/01/17 06:51:02;;;;;;;12.70;7.90;;;;;;;-1.65;88.31;97178.47;7228771;40;20254;31
2024/01/17 06:56:19;;;;;;;10.20;7.80;;;;;;;-1.60;88.85;97174.44;7216047;40;20376;31
2024/01/17 07:01:53;;;;;;;12.20;7.85;;;;;;;-1.60;89.08;97160.41;7206077;40;20427;31
2024/01/17 07:12:14;;;;;;;11.95;7.40;;;;;;;-1.60;89.61;97137.47;7230203;40;21351;31
2024/01/17 07:17:52;;;;;;;12.13;8.50;;;;;;;-1.64;90.24;97120.25;7236220;40;20265;31
2024/01/17 07:28:27;;;;;;;13.13;9.37;;;;;;;-1.52;88.92;97118.28;7296709;39;21355;31
2024/01/17 07:34:04;;;;;;;13.53;9.13;;;;;;;-1.47;88.74;97114.22;7277295;39;20276;31
2024/01/17 07:39:25;;;;;;;12.77;8.90;;;;;;;-1.37;89.32;97111.56;7273072;39;20333;31
2024/01/17 07:45:00;;;;;;;13.73;8.40;;;;;;;-1.36;88.31;97092.91;7256291;40;20257;31
2024/01/17 07:55:37;;;;;;;14.23;8.13;;;;;;;-1.20;88.28;97070.34;7203873;40;21478;31
2024/01/17 08:01:12;;;;;;;11.70;7.97;;;;;;;-1.12;88.46;97067.78;7281660;39;20241;31
2024/01/17 08:06:33;;;;;;;11.27;8.23;;;;;;;-1.08;88.04;97063.88;7267359;40;20391;31
2024/01/17 08:12:09;;;;;;;10.10;8.07;;;;;;;-1.05;87.80;97047.69;7259313;40;20264;31
2024/01/17 08:17:30;;;;;;;12.15;8.15;;;;;;;-1.00;87.64;97042.81;7207526;40;20322;31
2024/01/17 08:22:51;;;;;;;11.53;8.83;;;;;;;-1.00;88.92;97030.44;7198092;40;20376;31
2024/01/17 08:28:26;;;;;;;15.75;10.65;;;;;;;-0.97;87.78;97018.75;7191171;40;21402;31
2024/01/17 08:34:03;;;;;;;18.87;11.90;;;;;;;-0.89;88.41;96991.56;7191400;40;20354;31
2024/01/17 08:39:36;;;;;;;16.85;11.40;;;;;;;-0.81;87.50;96999.56;7219243;40;20246;31
2024/01/17 08:45:14;;;;;;;17.45;12.00;;;;;;;-0.86;88.33;96975.37;7215802;40;20261;31
2024/01/17 08:50:33;;;;;;;18.10;12.20;;;;;;;-0.82;87.95;96958.22;7210879;40;20266;31
2024/01/17 08:55:54;;;;;;;19.10;12.70;;;;;;;-0.80;88.59;96945.72;7228575;40;20272;31
2024/01/17 09:01:26;;;;;;;20.07;13.63;;;;;;;-0.79;88.80;96928.87;7198882;40;21507;31
2024/01/17 09:06:47;;;;;;;16.30;11.30;;;;;;;-0.77;88.67;96925.06;7221755;40;20261;31
2024/01/17 09:12:23;;;;;;;14.43;9.20;;;;;;;-0.78;88.83;96917.28;7213829;40;20261;31
2024/01/17 09:17:59;;;;;;;15.30;10.33;;;;;;;-0.77;88.53;96911.00;7234836;40;20246;31
2024/01/17 09:23:34;;;;;;;26.70;18.10;;;;;;;-0.82;89.68;96900.91;7226629;40;20260;31
2024/01/17 09:29:09;;;;;;;17.27;11.50;;;;;;;-0.79;89.69;96890.00;7212494;40;20302;31
2024/01/17 09:34:47;;;;;;;26.60;17.20;;;;;;;-0.76;89.09;96883.59;7169983;40;20338;31
2024/01/17 09:40:21;;;;;;;18.15;11.00;;;;;;;-0.70;89.41;96880.34;7155431;40;20266;31
2024/01/17 09:45:53;;;;;;;16.10;11.50;;;;;;;-0.70;88.94;96875.87;7198364;40;21513;31
2024/01/17 09:51:30;;;;;;;18.80;11.75;;;;;;;-0.67;89.17;96859.72;7153350;40;20314;31
2024/01/17 09:57:04;;;;;;;15.00;11.60;;;;;;;-0.61;89.57;96827.34;7178096;40;20389;31
2024/01/17 10:02:39;;;;;;;15.20;10.87;;;;;;;-0.55;90.25;96807.37;7245988;40;20270;31
2024/01/17 10:08:15;;;;;;;13.93;10.77;;;;;;;-0.61;92.14;96803.53;7243652;40;20328;31
2024/01/17 10:13:35;;;;;;;14.60;10.60;;;;;;;-0.52;90.57;96793.81;7160202;40;20385;31
2024/01/17 10:19:11;;;;;;;14.20;9.35;;;;;;;-0.48;90.50;96774.00;7175841;40;20258;31
2024/01/17 10:29:48;;;;;;;15.80;11.23;;;;;;;-0.44;90.39;96769.25;7304861;39;21280;31
2024/01/17 10:40:27;;;;;;;16.40;11.73;;;;;;;-0.44;90.45;96746.28;7271241;40;20755;31
2024/01/17 10:45:58;;;;;;;14.20;11.05;;;;;;;-0.40;91.44;96730.91;7098879;40;21179;31
2024/01/17 10:51:34;;;;;;;14.80;11.20;;;;;;;-0.40;91.24;96705.28;7253238;39;20350;31
2024/01/17 10:57:06;;;;;;;15.70;11.03;;;;;;;-0.37;91.28;96702.31;7257991;40;20263;31
2024/01/17 11:02:40;;;;;;;14.20;10.53;;;;;;;-0.25;91.81;96700.19;7187150;40;20254;31
2024/01/17 11:08:15;;;;;;;14.77;11.37;;;;;;;-0.20;90.70;96674.88;7180199;40;20302;31
2024/01/17 11:13:50;;;;;;;12.37;9.53;;;;;;;-0.26;93.80;96683.47;7240643;40;20257;31
2024/01/17 11:19:26;;;;;;;13.90;11.10;;;;;;;-0.26;92.96;96662.28;7186107;40;20293;31
2024/01/17 11:30:07;;;;;;;13.30;9.90;;;;;;;-0.18;94.85;96627.94;7197667;40;20767;31
2024/01/17 11:35:59;;;;;;;12.50;11.20;;;;;;;-0.11;94.72;96609.56;7172607;40;20238;31
2024/01/17 11:41:38;;;;;;;18.67;12.17;;;;;;;0.03;94.52;96598.31;7235546;40;20249;31
2024/01/17 11:46:57;;;;;;;14.37;10.50;;;;;;;0.09;94.56;96579.09;7237750;40;20269;31
2024/01/17 11:57:39;;;;;;;12.57;9.37;;;;;;;0.09;95.44;96573.00;7245227;40;20399;31
2024/01/17 12:08:19;;;;;;;12.63;9.57;;;;;;;0.16;94.31;96542.22;7286941;39;20751;31
2024/01/17 12:13:55;;;;;;;14.23;10.87;;;;;;;0.25;93.32;96530.63;7298453;39;20357;31
2024/01/17 12:19:30;;;;;;;15.40;12.03;;;;;;;0.35;92.56;96500.28;7268053;40;20304;31
2024/01/17 12:25:05;;;;;;;12.17;10.40;;;;;;;0.33;92.03;96507.59;7261275;40;20358;31
2024/01/17 12:30:41;;;;;;;15.87;11.70;;;;;;;0.36;91.74;96477.28;7198475;40;20270;31
2024/01/17 12:36:16;;;;;;;14.10;12.10;;;;;;;0.39;92.68;96474.31;7229227;40;20316;31
2024/01/17 12:41:51;;;;;;;14.77;11.20;;;;;;;0.43;91.97;96465.00;7179651;40;20236;31
2024/01/17 12:47:27;;;;;;;14.70;11.70;;;;;;;0.42;92.53;96473.94;7126798;40;20244;31
2024/01/17 12:53:02;;;;;;;15.73;12.70;;;;;;;0.44;92.15;96461.34;7143759;40;20233;31
2024/01/17 12:58:37;;;;;;;15.90;12.35;;;;;;;0.41;92.35;96436.03;7198309;40;20428;31
2024/01/17 13:04:17;;;;;;;16.85;12.85;;;;;;;0.45;93.04;96408.19;7211426;40;20480;31
2024/01/17 13:09:36;;;;;;;15.43;12.33;;;;;;;0.50;93.27;96407.69;7223305;39;20266;31
2024/01/17 13:14:56;;;;;;;17.30;12.10;;;;;;;0.50;93.62;96402.38;7227973;40;20261;31
2024/01/17 13:20:35;;;;;;;15.77;12.40;;;;;;;0.50;92.70;96402.38;7233594;40;20241;31
2024/01/17 13:26:11;;;;;;;15.27;11.33;;;;;;;0.57;92.67;96387.44;7224989;40;20308;31
2024/01/17 13:31:46;;;;;;;16.13;11.53;;;;;;;0.61;92.81;96377.34;7235542;40;20245;31
2024/01/17 13:37:23;;;;;;;20.10;14.10;;;;;;;0.62;93.59;96355.94;7259241;40;20343;31
2024/01/17 13:42:58;;;;;;;16.30;12.95;;;;;;;0.56;93.71;96350.53;7187442;40;20235;31
2024/01/17 13:48:33;;;;;;;18.37;13.13;;;;;;;0.56;93.84;96322.22;7198758;40;20273;31
2024/01/17 13:54:14;;;;;;;15.83;12.67;;;;;;;0.58;94.09;96314.91;7225792;40;20242;31
2024/01/17 13:59:29;;;;;;;13.85;12.00;;;;;;;0.63;93.70;96307.25;7239899;40;20324;31
2024/01/17 14:04:49;;;;;;;17.63;12.10;;;;;;;0.62;94.08;96287.03;7254863;39;20257;31
2024/01/17 14:10:26;;;;;;;15.35;12.25;;;;;;;0.62;93.61;96252.59;7258235;40;20261;31
2024/01/17 14:16:01;;;;;;;17.00;12.57;;;;;;;0.69;94.40;96248.25;7195144;40;20263;31
2024/01/17 14:21:36;;;;;;;23.05;13.90;;;;;;;0.70;94.34;96227.87;7186823;40;20320;31
2024/01/17 14:27:12;;;;;;;16.90;13.50;;;;;;;0.75;93.85;96209.59;7202630;40;20392;31
2024/01/17 14:32:47;;;;;;;16.17;12.77;;;;;;;0.82;94.17;96200.75;7094779;40;20230;31
2024/01/17 14:38:22;;;;;;;16.73;12.77;;;;;;;0.87;94.59;96198.41;7178921;40;20243;31
2024/01/17 14:43:59;;;;;;;18.37;11.90;;;;;;;0.89;94.48;96188.41;7187647;40;20324;31
2024/01/17 14:49:20;;;;;;;12.83;10.53;;;;;;;1.00;95.13;96178.38;7180168;40;20279;31
2024/01/17 14:59:58;;;;;;;19.37;13.53;;;;;;;1.07;95.17;96166.84;7244768;40;21255;31
2024/01/17 15:05:34;;;;;;;19.67;14.13;;;;;;;1.14;95.19;96162.47;7217480;40;20387;31
2024/01/17 15:10:54;;;;;;;17.85;12.65;;;;;;;1.26;96.02;96146.94;7183636;40;20243;31
2024/01/17 15:16:36;;;;;;;18.50;13.00;;;;;;;1.23;95.55;96134.00;7221474;40;20252;31
2024/01/17 15:22:12;;;;;;;27.13;18.27;;;;;;;1.22;95.26;96130.56;7191122;40;20236;31
2024/01/17 15:27:48;;;;;;;30.37;20.27;;;;;;;1.23;95.76;96131.34;7199175;40;20243;31
2024/01/17 15:33:24;;;;;;;29.50;20.90;;;;;;;1.16;97.15;96123.34;7183687;40;20346;31
2024/01/17 15:38:59;;;;;;;30.70;21.20;;;;;;;1.19;96.03;96120.31;7188791;40;20237;31
2024/01/17 15:44:20;;;;;;;25.50;18.07;;;;;;;1.19;96.41;96124.78;7160314;40;20243;31
2024/01/17 15:49:55;;;;;;;35.40;23.90;;;;;;;1.19;96.28;96122.97;7171712;40;20266;31
2024/01/17 15:55:16;;;;;;;33.30;23.23;;;;;;;1.21;96.66;96099.75;7179924;40;20343;31
2024/01/17 16:00:36;;;;;;;39.97;27.57;;;;;;;1.20;96.94;96087.47;7176322;40;20251;31
2024/01/17 16:06:13;;;;;;;39.30;28.00;;;;;;;1.28;97.06;96083.87;7286641;39;20252;31
2024/01/17 16:11:34;;;;;;;17.20;12.60;;;;;;;1.46;99.44;96072.88;7194386;40;20258;31
2024/01/17 16:17:09;;;;;;;18.90;11.73;;;;;;;1.75;100.00;96057.69;7237413;40;20359;31
2024/01/17 16:27:53;;;;;;;17.20;11.40;;;;;;;2.65;100.00;96033.88;7287628;39;20953;31
2024/01/17 16:38:29;;;;;;;7.30;4.50;;;;;;;3.96;100.00;96051.38;7256826;39;20273;31
2024/01/17 16:44:06;;;;;;;6.50;4.35;;;;;;;4.37;100.00;96041.34;7198691;40;20258;31
2024/01/17 16:49:26;;;;;;;6.10;4.10;;;;;;;4.91;100.00;96048.28;7224526;40;20250;31
2024/01/17 16:54:47;;;;;;;5.47;3.90;;;;;;;5.28;100.00;96044.03;7215850;40;20392;31
2024/01/17 17:00:24;;;;;;;6.25;3.75;;;;;;;5.66;100.00;96042.22;7223722;40;20258;31
2024/01/17 17:06:00;;;;;;;7.17;4.27;;;;;;;5.86;100.00;96034.94;7239827;40;20442;31
2024/01/17 17:11:20;;;;;;;7.30;4.77;;;;;;;6.16;100.00;96035.16;7205816;40;20312;31
2024/01/17 17:22:02;;;;;;;5.90;4.15;;;;;;;6.40;100.00;96020.16;7282562;40;20903;31
2024/01/17 17:32:27;;;;;;;6.30;4.00;;;;;;;6.86;100.00;96034.97;7199401;40;20751;31
2024/01/17 17:43:09;;;;;;;4.65;2.60;;;;;;;7.06;100.00;96008.81;7306591;39;20755;31
2024/01/17 17:48:44;;;;;;;5.77;3.03;;;;;;;7.12;100.00;96016.75;7039841;40;21369;31
2024/01/17 17:59:22;;;;;;;7.00;3.20;;;;;;;7.44;100.00;96027.31;7215985;40;20923;31
2024/01/17 18:09:58;;;;;;;3.33;2.63;;;;;;;7.77;100.00;96033.06;7309494;39;21329;31
2024/01/17 18:15:36;;;;;;;7.10;2.80;;;;;;;8.02;100.00;96041.81;7319548;39;20241;31
2024/01/17 18:21:11;;;;;;;5.75;3.70;;;;;;;8.19;100.00;96043.84;7275180;40;20241;31
2024/01/17 18:26:44;;;;;;;4.73;2.87;;;;;;;8.32;100.00;96030.25;7240244;40;20391;31
2024/01/17 18:32:21;;;;;;;6.30;2.65;;;;;;;8.35;100.00;96044.00;7181682;40;20254;31
2024/01/17 18:37:40;;;;;;;4.90;2.20;;;;;;;8.58;100.00;96041.38;7114823;40;20255;31
2024/01/17 18:43:00;;;;;;;5.50;2.30;;;;;;;8.64;100.00;96061.13;7148994;40;20242;31
2024/01/17 18:48:39;;;;;;;5.25;2.20;;;;;;;8.76;100.00;96051.19;7180962;40;20257;31
2024/01/17 18:53:59;;;;;;;4.85;2.05;;;;;;;8.89;100.00;96074.31;7227780;40;20394;31
2024/01/17 18:59:34;;;;;;;9.80;3.10;;;;;;;8.95;100.00;96060.78;7276813;40;20240;31
2024/01/17 19:05:11;;;;;;;3.30;2.40;;;;;;;8.94;100.00;96058.34;7225773;40;20250;31
2024/01/17 19:15:36;;;;;;;4.17;2.50;;;;;;;9.02;100.00;96077.59;7278091;39;20724;31
2024/01/17 19:21:17;;;;;;;4.33;2.70;;;;;;;9.01;100.00;96067.09;7260699;40;20284;31
2024/01/17 19:26:36;;;;;;;5.55;2.45;;;;;;;9.04;100.00;96085.41;7257435;40;20305;31
2024/01/17 19:31:57;;;;;;;4.67;2.40;;;;;;;9.04;100.00;96093.47;7224455;40;20756;31
2024/01/17 19:37:33;;;;;;;4.30;2.10;;;;;;;9.22;100.00;96082.59;7204393;40;20274;31
2024/01/17 19:47:53;;;;;;;4.53;2.27;;;;;;;9.27;100.00;96082.72;7281367;39;20277;31
2024/01/17 19:58:34;;;;;;;3.55;2.10;;;;;;;9.54;100.00;96095.66;7260506;40;20270;31
2024/01/17 20:03:52;;;;;;;3.83;1.77;;;;;;;9.70;100.00;96113.75;7216991;40;20273;31
2024/01/17 20:09:27;;;;;;;3.27;1.83;;;;;;;9.86;100.00;96108.47;7256570;40;20245;31
2024/01/17 20:15:04;;;;;;;4.75;2.10;;;;;;;9.90;100.00;96111.50;7239079;40;20315;31
2024/01/17 20:20:39;;;;;;;2.50;1.40;;;;;;;9.91;100.00;96115.84;7187962;40;20243;31
2024/01/17 20:25:59;;;;;;;3.23;1.77;;;;;;;9.95;100.00;96117.81;7167802;40;20413;31
2024/01/17 20:31:36;;;;;;;1.47;1.23;;;;;;;10.00;100.00;96121.66;7164607;40;20374;31
2024/01/17 20:37:00;;;;;;;3.95;1.60;;;;;;;10.13;100.00;96127.59;7158026;40;20258;31
2024/01/17 20:42:16;;;;;;;9.10;4.25;;;;;;;10.28;100.00;96127.06;7153592;40;20397;31
2024/01/17 20:47:52;;;;;;;5.60;2.45;;;;;;;10.33;100.00;96154.09;7149450;40;20395;31
2024/01/17 20:53:14;;;;;;;4.43;2.70;;;;;;;10.26;100.00;96153.44;7191622;40;20257;31
2024/01/17 20:58:50;;;;;;;3.33;1.90;;;;;;;10.40;100.00;96174.44;7252186;39;20253;31
2024/01/17 21:04:26;;;;;;;3.97;1.90;;;;;;;10.39;100.00;96178.19;7189590;40;20278;31
2024/01/17 21:09:47;;;;;;;3.90;1.67;;;;;;;10.38;100.00;96194.59;7129929;40;20239;31
2024/01/17 21:15:22;;;;;;;5.13;2.07;;;;;;;10.38;100.00;96205.34;7118457;40;20247;31
2024/01/17 21:20:56;;;;;;;2.10;1.70;;;;;;;10.31;100.00;96205.47;7152940;40;20270;31
2024/01/17 21:26:34;;;;;;;3.67;2.00;;;;;;;10.30;100.00;96222.69;7096267;40;20260;31
2024/01/17 21:32:08;;;;;;;5.70;1.70;;;;;;;10.38;100.00;96224.19;7118935;40;20248;31
2024/01/17 21:37:57;;;;;;;2.95;1.90;;;;;;;10.38;100.00;96224.19;7105099;40;20349;31
2024/01/17 21:43:29;;;;;;;3.00;1.80;;;;;;;10.35;100.00;96230.06;7117996;40;20387;31
2024/01/17 21:49:05;;;;;;;3.20;2.10;;;;;;;10.36;100.00;96251.34;7156914;40;20347;31
2024/01/17 21:54:42;;;;;;;2.90;1.40;;;;;;;10.29;100.00;96237.22;7112897;40;20326;31
2024/01/17 22:00:17;;;;;;;4.65;2.60;;;;;;;10.31;100.00;96256.63;7179526;40;20463;31
2024/01/17 22:05:39;;;;;;;3.25;1.80;;;;;;;10.34;100.00;96255.34;7199737;40;20257;31
2024/01/17 22:11:14;;;;;;;2.90;1.80;;;;;;;10.33;100.00;96270.69;7273401;39;20247;31
2024/01/17 22:16:35;;;;;;;3.43;1.90;;;;;;;10.25;100.00;96264.84;7257417;39;20252;31
2024/01/17 22:22:09;;;;;;;3.10;1.80;;;;;;;10.20;100.00;96275.50;7256049;40;20260;31
2024/01/17 22:27:47;;;;;;;3.30;2.10;;;;;;;10.12;100.00;96281.22;7204921;40;20242;31
2024/01/17 22:33:09;;;;;;;3.95;2.10;;;;;;;10.14;100.00;96296.06;7144059;40;20325;31
2024/01/17 22:38:29;;;;;;;3.07;2.03;;;;;;;10.15;100.00;96304.94;7196863;40;20347;31
2024/01/17 22:44:05;;;;;;;2.80;1.63;;;;;;;10.11;100.00;96322.63;7175001;40;20346;31
2024/01/17 22:49:37;;;;;;;4.87;2.13;;;;;;;10.10;100.00;96329.03;7155457;40;20302;31
2024/01/17 23:00:20;;;;;;;4.95;3.80;;;;;;;9.74;100.00;96325.50;7308761;39;20639;31
2024/01/17 23:05:41;;;;;;;5.87;5.27;;;;;;;8.82;96.35;96337.59;7282851;39;20356;31
2024/01/17 23:11:03;;;;;;;6.90;5.55;;;;;;;7.88;95.91;96353.25;7302535;39;20368;31
2024/01/17 23:16:39;;;;;;;6.50;5.40;;;;;;;7.36;96.31;96357.97;7278563;39;20300;31
2024/01/17 23:21:59;;;;;;;8.50;6.07;;;;;;;6.95;96.12;96381.69;7277088;39;20226;31
2024/01/17 23:27:20;;;;;;;7.15;5.55;;;;;;;6.66;96.69;96383.06;7270991;39;20256;31
2024/01/17 23:32:57;;;;;;;6.83;5.27;;;;;;;6.45;97.55;96386.00;7279130;39;20404;31
2024/01/17 23:38:16;;;;;;;7.10;5.70;;;;;;;6.21;96.08;96395.50;7237613;40;20341;31
2024/01/17 23:43:51;;;;;;;7.05;5.35;;;;;;;5.93;96.63;96398.41;7287688;39;20457;31
2024/01/17 23:49:25;;;;;;;8.17;5.60;;;;;;;5.82;96.65;96401.69;7224893;40;20436;31
2024/01/17 23:54:45;;;;;;;7.00;5.60;;;;;;;5.74;97.23;96428.63;7205232;40;20351;31
